Roulette, Pennsylvania
Current Conditions -  °F | °C
As of 12:56 AM on Thursday 18 Dec 2014 (Local Time) from KELZ Reporting Station
Overcast Overcast  
Wind Chill: 16°   Ceiling: 3300
Heat Index: 27°   Visibility: 10mi
Dew Point: 19°   Wind: 14mph
Humidity: 72%   Direction: 290°WNW
Pressure: 29.94"   Gusts: 26mph
Location:  41.78°N, 78.15°W
Report Text: KELZ 180556Z AUTO 29012G23KT 10SM SCT024 BKN033 OVC043 M03/M07 A2994 RMK AO2 PK WND 30026/0521 SLP161 60002 T10281072 11017 21028 53004
Loading
Personal Weather Stations






























Interactive Weather Map New forecast layout! Learn more

10-Day Weather Forecast

Advertisements
Track Severe Weather on mobile